Terminal Aerodrome Forecast
Issued by NWS Mt. Holly, NJ

Home | Current Version | Previous Version | Text Only | Print | Product List | Glossary On
Versions: 1 2 3 4 5 6 7 8 9 10 11 12 13 14 15 16 17 18 19 20 21 22 23 24 25 26 27 28 29 30 31 32
000
FTAK31 PANC 221158 AAA
TAFABE
TAF AMD
PABE 221158Z 2212/2312 34009KT P6SM VCFG SCT001
      TEMPO 2212/2216 2SM BR BKN001
     FM221800 34012G20KT P6SM SCT020 BKN070
     FM230300 33011KT P6SM BKN100=

USA.gov is the U.S. government's official web portal to all federal, state and local government web resources and services.